createdAt,value
2018-03-04T00:01:26.693Z,242.7
2018-03-04T00:11:26.601Z,225.4
2018-03-04T00:21:26.369Z,261.1
2018-03-04T00:31:27.034Z,224.5
2018-03-04T00:41:27.916Z,214.6
2018-03-04T00:51:26.822Z,201.5
2018-03-04T01:01:26.611Z,185.2
2018-03-04T01:11:27.239Z,164.8
2018-03-04T01:21:27.331Z,231.0
2018-03-04T01:31:26.666Z,209.3
2018-03-04T01:41:27.838Z,210.1
2018-03-04T01:51:26.236Z,217.0
2018-03-04T02:01:26.584Z,208.1
2018-03-04T02:11:27.032Z,203.4
2018-03-04T02:21:26.719Z,156.7
2018-03-04T02:31:26.413Z,237.7
2018-03-04T02:41:26.871Z,188.9
2018-03-04T02:51:26.125Z,229.2
2018-03-04T03:01:26.403Z,227.0
2018-03-04T03:11:26.846Z,233.1
2018-03-04T03:21:26.448Z,208.2
2018-03-04T03:31:27.010Z,245.2
2018-03-04T03:41:26.505Z,273.6
2018-03-04T03:51:27.531Z,215.6
2018-03-04T04:01:26.948Z,224.8
2018-03-04T04:11:26.270Z,229.5
2018-03-04T04:21:27.736Z,263.8
2018-03-04T04:31:25.973Z,218.8
2018-03-04T04:41:26.409Z,243.7
2018-03-04T04:51:26.692Z,210.3
2018-03-04T05:01:26.071Z,218.8
2018-03-04T05:11:26.437Z,221.3
2018-03-04T05:21:27.372Z,212.7
2018-03-04T05:31:26.724Z,210.7
2018-03-04T05:41:26.074Z,170.0
2018-03-04T05:51:26.608Z,163.4
2018-03-04T06:01:27.334Z,273.0
2018-03-04T06:11:26.970Z,246.0
2018-03-04T06:21:26.426Z,258.2
2018-03-04T06:31:26.844Z,224.9
2018-03-04T06:41:26.161Z,205.6
2018-03-04T06:51:26.975Z,213.7
2018-03-04T07:01:28.684Z,215.4
2018-03-04T07:11:27.904Z,207.8
2018-03-04T07:21:26.954Z,200.9
2018-03-04T07:31:26.458Z,187.0
2018-03-04T07:41:28.051Z,165.9
2018-03-04T07:51:26.859Z,178.0
2018-03-04T08:01:26.159Z,158.2
2018-03-04T08:11:28.655Z,115.7
2018-03-04T08:21:26.744Z,95.6
2018-03-04T08:31:27.322Z,97.9
2018-03-04T08:41:26.913Z,106.1
2018-03-04T08:51:26.836Z,129.8
2018-03-04T09:01:26.383Z,119.0
2018-03-04T09:11:26.804Z,96.1
2018-03-04T09:21:26.738Z,84.2
2018-03-04T09:31:26.236Z,110.8
2018-03-04T09:41:26.667Z,124.2
2018-03-04T09:51:27.124Z,135.3
2018-03-04T10:01:26.557Z,82.6
2018-03-04T10:11:27.101Z,93.3
2018-03-04T10:21:26.805Z,70.4
2018-03-04T10:31:26.470Z,75.3
2018-03-04T10:41:27.723Z,78.7
2018-03-04T10:51:28.393Z,94.3
2018-03-04T11:01:26.906Z,88.2
2018-03-04T11:11:28.685Z,71.3
2018-03-04T11:21:26.593Z,78.4
2018-03-04T11:31:27.228Z,69.7
2018-03-04T11:41:27.849Z,41.0
2018-03-04T11:51:26.537Z,43.3
2018-03-04T12:01:30.322Z,62.7
2018-03-04T12:11:26.923Z,54.5
2018-03-04T12:21:29.158Z,55.0
2018-03-04T12:31:26.537Z,57.8
2018-03-04T12:41:27.397Z,66.1
2018-03-04T12:51:28.958Z,46.0
2018-03-04T13:01:27.325Z,59.8
2018-03-04T13:11:26.830Z,60.8
2018-03-04T13:21:26.716Z,64.8
2018-03-04T13:31:26.460Z,77.4
2018-03-04T13:41:27.467Z,72.8
2018-03-04T13:51:27.515Z,95.1
2018-03-04T14:01:27.034Z,86.2
2018-03-04T14:11:26.593Z,82.9
2018-03-04T14:21:26.295Z,86.7
2018-03-04T14:31:27.295Z,65.9
2018-03-04T14:41:26.895Z,63.3
2018-03-04T14:51:26.443Z,58.0
2018-03-04T15:01:28.062Z,52.9
2018-03-04T15:11:26.917Z,53.0
2018-03-04T15:21:26.671Z,52.4
2018-03-04T15:31:28.063Z,57.5
2018-03-04T15:41:26.962Z,66.0
2018-03-04T15:51:26.557Z,80.1
2018-03-04T16:01:27.393Z,73.5
2018-03-04T16:11:27.478Z,80.9
2018-03-04T16:21:27.341Z,93.2
2018-03-04T16:31:27.985Z,91.9
2018-03-04T16:41:26.776Z,98.0
2018-03-04T16:51:26.276Z,113.2
2018-03-04T17:01:28.031Z,107.1
2018-03-04T17:11:27.626Z,107.7
2018-03-04T17:21:32.129Z,106.8
2018-03-04T17:31:27.157Z,117.8
2018-03-04T17:41:26.589Z,123.1
2018-03-04T17:51:27.108Z,131.0
2018-03-04T18:01:26.708Z,140.9
2018-03-04T18:11:27.593Z,131.9
2018-03-04T18:21:28.000Z,148.9
2018-03-04T18:31:27.087Z,147.2
2018-03-04T18:41:27.553Z,141.8
2018-03-04T18:51:28.601Z,131.9
2018-03-04T19:01:28.696Z,167.5
2018-03-04T19:11:27.467Z,167.8
2018-03-04T19:21:26.165Z,152.6
2018-03-04T19:31:27.536Z,163.0
2018-03-04T19:41:27.305Z,182.4
2018-03-04T19:51:28.548Z,174.2
2018-03-04T20:01:27.359Z,161.5
2018-03-04T20:11:28.088Z,171.2
2018-03-04T20:21:28.443Z,175.9
2018-03-04T20:31:26.975Z,199.4
2018-03-04T20:41:27.884Z,195.1
2018-03-04T20:51:26.646Z,232.4
2018-03-04T21:01:27.072Z,204.0
2018-03-04T21:11:26.420Z,212.7
2018-03-04T21:21:27.420Z,209.3
2018-03-04T21:31:27.470Z,214.4
2018-03-04T21:41:28.043Z,232.1
2018-03-04T21:51:26.734Z,246.3
2018-03-04T22:01:30.079Z,234.6
2018-03-04T22:11:26.676Z,237.0
2018-03-04T22:21:26.838Z,235.7
2018-03-04T22:31:26.589Z,241.1
2018-03-04T22:41:27.927Z,255.9
2018-03-04T22:51:27.022Z,248.3
2018-03-04T23:01:26.759Z,254.1
2018-03-04T23:11:29.090Z,245.8
2018-03-04T23:21:27.528Z,215.2
2018-03-04T23:31:27.553Z,242.4
2018-03-04T23:41:32.365Z,255.0
2018-03-04T23:51:26.793Z,233.6
